Time;durP1;ratioP1;P1;durP2;ratioP2;P2;SDS_P1;SDS_P2;PMS_P1;PMS_P2;Temp;Humidity;BMP_temperature;BMP_pressure;BME280_temperature;BME280_humidity;BME280_pressure;Samples;Min_cycle;Max_cycle;Signal;HPM_P1;HPM_P2
2020/12/03 00:00:33;;;;;;;30.42;17.75;;;2.30;99.90;;;;;;5076037;28;20191;-54
2020/12/03 00:03:04;;;;;;;25.75;16.17;;;2.50;99.90;;;;;;5097442;28;20199;-54
2020/12/03 00:05:30;;;;;;;33.33;17.80;;;2.30;99.90;;;;;;5104680;28;20768;-54
2020/12/03 00:07:56;;;;;;;29.48;17.70;;;2.20;99.90;;;;;;5096854;28;20300;-53
2020/12/03 00:10:23;;;;;;;26.92;16.77;;;2.80;99.90;;;;;;5088771;28;20188;-53
2020/12/03 00:13:09;;;;;;;25.73;16.90;;;2.50;99.90;;;;;;5106481;28;20183;-53
2020/12/03 00:15:35;;;;;;;26.38;17.08;;;2.50;99.90;;;;;;5091253;28;20198;-53
2020/12/03 00:18:01;;;;;;;29.58;16.40;;;2.70;99.90;;;;;;5088567;28;20192;-53
2020/12/03 00:20:27;;;;;;;25.10;15.20;;;2.70;99.90;;;;;;5088593;28;20176;-54
2020/12/03 00:22:53;;;;;;;28.33;15.10;;;2.80;99.90;;;;;;5102202;28;20225;-53
2020/12/03 00:25:19;;;;;;;25.17;15.70;;;2.80;99.90;;;;;;5088769;28;20287;-53
2020/12/03 00:27:53;;;;;;;27.03;16.50;;;3.00;99.90;;;;;;5095273;28;20635;-53
2020/12/03 00:30:20;;;;;;;29.90;16.80;;;2.70;99.90;;;;;;5088129;28;20176;-53
2020/12/03 00:32:47;;;;;;;29.00;17.35;;;2.70;99.90;;;;;;5090050;28;20181;-53
2020/12/03 00:35:13;;;;;;;28.10;17.23;;;2.70;99.90;;;;;;5088465;28;20223;-54
2020/12/03 00:37:40;;;;;;;29.75;17.48;;;2.80;99.90;;;;;;5092016;28;20274;-54
2020/12/03 00:40:06;;;;;;;26.23;15.88;;;2.70;99.90;;;;;;5088196;28;20287;-54
2020/12/03 00:42:32;;;;;;;24.58;16.35;;;2.70;99.90;;;;;;5094243;28;20254;-54
2020/12/03 00:44:58;;;;;;;27.93;16.50;;;2.70;99.90;;;;;;5088239;28;20200;-54
2020/12/03 00:47:23;;;;;;;33.20;16.50;;;2.70;99.90;;;;;;5097694;28;20476;-54
2020/12/03 00:49:49;;;;;;;25.67;14.07;;;3.30;99.90;;;;;;5076239;28;20239;-54
2020/12/03 00:52:14;;;;;;;29.77;16.50;;;2.70;99.90;;;;;;5087143;28;20187;-53
2020/12/03 00:54:41;;;;;;;29.27;16.40;;;2.60;99.90;;;;;;5088633;28;20200;-54
2020/12/03 00:57:07;;;;;;;25.10;14.23;;;2.80;99.90;;;;;;5098068;28;20180;-54
2020/12/03 00:59:37;;;;;;;23.63;14.57;;;2.50;99.90;;;;;;5090089;28;20668;-54
2020/12/03 01:02:10;;;;;;;26.65;15.40;;;2.50;99.90;;;;;;5093641;28;20469;-53
2020/12/03 01:04:36;;;;;;;25.90;15.20;;;2.70;99.90;;;;;;5088126;28;20738;-54
2020/12/03 01:07:02;;;;;;;25.67;15.80;;;3.00;99.90;;;;;;5092814;28;20196;-54
2020/12/03 01:09:27;;;;;;;29.23;16.40;;;3.00;99.90;;;;;;5088694;28;20245;-53
2020/12/03 01:11:53;;;;;;;26.53;15.40;;;3.00;99.90;;;;;;5093989;28;20461;-54
2020/12/03 01:14:19;;;;;;;25.00;15.83;;;3.00;99.90;;;;;;5081915;28;20616;-54
2020/12/03 01:16:46;;;;;;;28.60;16.17;;;2.90;99.90;;;;;;5101363;28;20175;-54
2020/12/03 01:19:12;;;;;;;27.35;15.60;;;3.00;99.90;;;;;;5091091;28;20180;-53
2020/12/03 01:21:37;;;;;;;25.95;15.65;;;2.80;99.90;;;;;;5103555;27;20178;-54
2020/12/03 01:24:03;;;;;;;29.80;17.30;;;2.80;99.90;;;;;;5090632;28;20745;-54
2020/12/03 01:26:29;;;;;;;28.20;16.57;;;2.90;99.90;;;;;;5098649;28;20171;-54
2020/12/03 01:28:54;;;;;;;28.40;16.10;;;2.80;99.90;;;;;;5091366;28;20469;-54
2020/12/03 01:31:20;;;;;;;31.50;17.80;;;2.90;99.90;;;;;;5097157;28;20198;-54
2020/12/03 01:33:46;;;;;;;28.17;17.13;;;3.00;99.90;;;;;;5108007;28;20207;-53
2020/12/03 01:36:13;;;;;;;27.53;16.10;;;2.80;99.90;;;;;;5096104;28;20183;-53
2020/12/03 01:38:38;;;;;;;23.40;15.35;;;3.20;99.90;;;;;;5092717;28;20627;-54
2020/12/03 01:41:04;;;;;;;28.77;17.17;;;3.20;99.90;;;;;;5094156;28;20214;-54
2020/12/03 01:43:30;;;;;;;27.73;15.67;;;3.20;99.90;;;;;;5092883;28;20188;-53
2020/12/03 01:45:58;;;;;;;32.67;17.27;;;3.10;99.90;;;;;;5090639;28;20211;-53
2020/12/03 01:48:33;;;;;;;27.63;16.80;;;3.20;99.90;;;;;;5091978;28;20569;-54
2020/12/03 01:51:01;;;;;;;28.27;16.38;;;2.90;99.90;;;;;;5086973;28;20179;-54
2020/12/03 01:53:28;;;;;;;29.08;16.48;;;3.10;99.90;;;;;;5089890;28;20678;-54
2020/12/03 01:55:54;;;;;;;25.55;14.90;;;2.40;99.90;;;;;;5093052;28;20208;-54
2020/12/03 01:58:39;;;;;;;27.25;16.25;;;3.20;99.90;;;;;;5090936;28;20185;-54
2020/12/03 02:01:06;;;;;;;27.75;17.10;;;3.20;99.90;;;;;;5091444;28;20177;-54
2020/12/03 02:03:32;;;;;;;26.02;15.88;;;3.20;99.90;;;;;;5102226;28;20271;-54
2020/12/03 02:05:58;;;;;;;25.92;15.43;;;2.90;99.90;;;;;;5094883;28;20262;-54
2020/12/03 02:08:24;;;;;;;28.30;17.60;;;3.20;99.90;;;;;;5089716;28;20240;-54
2020/12/03 02:10:50;;;;;;;24.50;17.27;;;3.30;99.90;;;;;;5102007;28;20597;-54
2020/12/03 02:13:16;;;;;;;25.23;14.98;;;3.30;99.90;;;;;;5091060;28;20437;-53
2020/12/03 02:15:41;;;;;;;26.80;16.50;;;3.00;99.90;;;;;;5095670;28;20204;-54
2020/12/03 02:18:08;;;;;;;28.73;16.70;;;3.10;99.90;;;;;;5088935;28;20188;-54
2020/12/03 02:20:37;;;;;;;28.52;15.77;;;3.40;99.90;;;;;;5091104;28;20255;-54
2020/12/03 02:23:21;;;;;;;28.52;18.08;;;3.60;99.90;;;;;;5085451;28;20181;-54
2020/12/03 02:25:46;;;;;;;32.40;17.45;;;3.50;99.90;;;;;;5094745;28;20252;-54
2020/12/03 02:28:12;;;;;;;26.50;15.23;;;3.30;99.90;;;;;;5091030;28;20200;-53
2020/12/03 02:30:37;;;;;;;26.27;16.00;;;3.30;99.90;;;;;;5090629;28;20233;-54
2020/12/03 02:33:03;;;;;;;24.90;16.07;;;3.50;99.90;;;;;;5100381;28;20280;-54
2020/12/03 02:35:29;;;;;;;26.07;15.90;;;3.10;99.90;;;;;;5090955;28;20673;-54
2020/12/03 02:37:55;;;;;;;27.53;15.93;;;3.30;99.90;;;;;;5090358;28;21072;-53
2020/12/03 02:40:20;;;;;;;30.40;17.90;;;3.50;99.90;;;;;;5090858;28;20233;-54
2020/12/03 02:42:46;;;;;;;25.30;16.90;;;3.10;99.90;;;;;;5093572;28;20465;-54
2020/12/03 02:45:12;;;;;;;29.70;18.00;;;3.20;99.90;;;;;;5094032;28;20223;-54
2020/12/03 02:47:37;;;;;;;28.90;17.53;;;3.20;99.90;;;;;;5088373;28;20314;-53
2020/12/03 02:50:05;;;;;;;28.83;17.00;;;3.10;99.90;;;;;;5089410;28;20617;-53
2020/12/03 02:52:31;;;;;;;29.35;18.63;;;3.30;99.90;;;;;;5094148;28;20189;-53
2020/12/03 02:54:57;;;;;;;29.00;17.17;;;3.10;99.90;;;;;;5091455;28;20448;-54
2020/12/03 02:57:23;;;;;;;30.17;18.08;;;3.00;99.90;;;;;;5095972;28;20470;-53
2020/12/03 02:59:48;;;;;;;28.77;17.10;;;3.00;99.90;;;;;;5090300;28;20742;-54
2020/12/03 03:02:15;;;;;;;30.77;18.83;;;2.80;99.90;;;;;;5090442;28;20185;-54
2020/12/03 03:04:41;;;;;;;29.35;18.92;;;2.80;99.90;;;;;;5089767;28;20450;-54
2020/12/03 03:07:07;;;;;;;29.10;18.23;;;3.00;99.90;;;;;;5095603;28;20188;-54
2020/12/03 03:09:33;;;;;;;29.63;18.77;;;3.00;99.90;;;;;;5089310;28;20180;-53
2020/12/03 03:11:58;;;;;;;34.22;19.10;;;3.00;99.90;;;;;;5092192;28;20191;-54
2020/12/03 03:14:24;;;;;;;34.90;20.07;;;2.80;99.90;;;;;;5091576;28;20673;-54
2020/12/03 03:16:50;;;;;;;31.47;20.07;;;2.80;99.90;;;;;;5089841;28;20176;-54
2020/12/03 03:19:17;;;;;;;36.10;20.73;;;2.80;99.90;;;;;;5089664;28;20242;-54
2020/12/03 03:24:18;;;;;;;30.20;18.58;;;3.00;99.90;;;;;;5888583;22;20585;-59
2020/12/03 03:26:44;;;;;;;30.07;18.30;;;2.90;99.90;;;;;;5088886;28;20208;-60
2020/12/03 03:29:11;;;;;;;29.65;18.65;;;2.70;99.90;;;;;;5088666;28;20208;-59
2020/12/03 03:31:36;;;;;;;35.42;20.65;;;2.50;99.90;;;;;;5088629;28;20184;-59
2020/12/03 03:34:03;;;;;;;35.73;20.30;;;2.80;99.90;;;;;;5088877;28;20568;-59
2020/12/03 03:36:29;;;;;;;31.38;19.58;;;2.50;99.90;;;;;;5089085;28;20208;-61
2020/12/03 03:38:55;;;;;;;36.90;21.33;;;2.80;99.90;;;;;;5088619;28;20190;-60
2020/12/03 03:41:21;;;;;;;32.53;18.50;;;2.90;99.90;;;;;;5086234;28;20267;-60
2020/12/03 03:43:46;;;;;;;32.13;20.83;;;2.70;99.90;;;;;;5088922;28;20184;-60
2020/12/03 03:46:12;;;;;;;32.10;19.90;;;2.80;99.90;;;;;;5088168;28;20652;-60
2020/12/03 03:48:38;;;;;;;33.20;19.13;;;2.50;99.90;;;;;;5089573;28;20790;-60
2020/12/03 03:51:05;;;;;;;30.73;19.07;;;2.50;99.90;;;;;;5088698;28;20461;-60
2020/12/03 03:53:31;;;;;;;32.75;20.15;;;2.50;99.90;;;;;;5088648;28;20191;-60
2020/12/03 03:55:56;;;;;;;34.05;19.13;;;2.70;99.90;;;;;;5088980;28;20205;-61
2020/12/03 03:58:22;;;;;;;31.53;18.40;;;2.40;99.90;;;;;;5088464;28;20274;-60
2020/12/03 04:00:48;;;;;;;33.20;18.50;;;2.80;99.90;;;;;;5088695;28;20279;-60
2020/12/03 04:03:17;;;;;;;36.72;20.50;;;2.40;99.90;;;;;;5088621;28;20192;-60
2020/12/03 04:05:48;;;;;;;30.90;19.38;;;2.40;99.90;;;;;;5088479;28;20299;-61
2020/12/03 04:08:15;;;;;;;30.38;20.63;;;2.20;99.90;;;;;;5087418;28;20307;-61
2020/12/03 04:10:42;;;;;;;29.58;18.90;;;2.90;99.90;;;;;;5087333;28;20263;-61
2020/12/03 04:13:09;;;;;;;31.00;19.38;;;2.80;99.90;;;;;;5088597;28;20267;-61
2020/12/03 04:15:34;;;;;;;35.45;20.70;;;2.70;99.90;;;;;;5087445;28;20556;-61
2020/12/03 04:18:00;;;;;;;32.30;19.00;;;2.70;99.90;;;;;;5088446;28;20203;-61
2020/12/03 04:20:26;;;;;;;34.73;19.27;;;2.70;99.90;;;;;;5088548;28;20180;-61
2020/12/03 04:22:52;;;;;;;31.88;18.98;;;2.80;99.90;;;;;;5087924;28;20216;-61
2020/12/03 04:25:17;;;;;;;32.07;21.10;;;2.70;99.90;;;;;;5087895;28;20657;-60
2020/12/03 04:27:43;;;;;;;29.03;19.07;;;2.70;99.90;;;;;;5087790;28;20239;-61
2020/12/03 04:30:10;;;;;;;33.03;20.77;;;2.90;99.90;;;;;;5088002;28;20187;-61
2020/12/03 04:32:36;;;;;;;29.85;18.33;;;2.70;99.90;;;;;;5085584;28;20236;-61
2020/12/03 04:35:04;;;;;;;31.40;19.13;;;2.70;99.90;;;;;;5087914;28;20738;-61
2020/12/03 04:37:30;;;;;;;31.45;19.40;;;2.80;99.90;;;;;;5087753;28;20203;-61
2020/12/03 04:39:58;;;;;;;30.80;20.90;;;3.10;99.90;;;;;;5088038;28;20180;-61
2020/12/03 04:42:32;;;;;;;30.50;19.20;;;2.70;99.90;;;;;;5087429;28;20648;-61
2020/12/03 04:45:05;;;;;;;29.08;18.13;;;2.80;99.90;;;;;;5087667;28;20223;-60
2020/12/03 04:48:16;;;;;;;32.67;20.13;;;3.30;99.90;;;;;;5087388;28;20208;-60
2020/12/03 04:50:56;;;;;;;27.35;19.08;;;3.10;99.90;;;;;;5045480;28;20392;-61
2020/12/03 04:53:54;;;;;;;28.05;17.73;;;3.20;99.90;;;;;;5029598;28;20266;-60
2020/12/03 04:56:30;;;;;;;30.50;18.83;;;2.60;99.90;;;;;;5072766;28;20497;-60
2020/12/03 04:58:59;;;;;;;26.55;15.55;;;3.10;99.90;;;;;;5088033;28;20527;-60
2020/12/03 05:02:01;;;;;;;26.75;17.40;;;3.30;99.90;;;;;;5087345;28;20265;-60
2020/12/03 05:04:36;;;;;;;24.70;16.67;;;3.20;99.90;;;;;;5087460;28;20426;-60
2020/12/03 05:07:22;;;;;;;27.40;16.52;;;3.20;99.90;;;;;;5086283;28;20195;-61
2020/12/03 05:10:40;;;;;;;23.13;16.17;;;3.10;99.90;;;;;;5087504;28;20207;-61
2020/12/03 05:13:20;;;;;;;24.50;17.20;;;3.30;99.90;;;;;;5042979;28;20199;-61
2020/12/03 05:15:50;;;;;;;23.85;15.18;;;3.20;99.90;;;;;;5087808;28;20214;-61
2020/12/03 05:18:21;;;;;;;23.65;16.33;;;3.20;99.90;;;;;;5087719;28;20180;-61
2020/12/03 05:20:52;;;;;;;27.77;15.80;;;3.40;99.90;;;;;;5087111;28;20267;-60
2020/12/03 05:23:22;;;;;;;23.40;16.15;;;3.10;99.90;;;;;;5086951;28;20199;-61
2020/12/03 05:25:53;;;;;;;25.10;16.02;;;3.30;99.90;;;;;;5086481;28;20224;-61
2020/12/03 05:28:34;;;;;;;26.27;16.48;;;3.20;99.90;;;;;;5086876;28;20212;-61
2020/12/03 05:31:21;;;;;;;28.33;18.38;;;2.70;99.90;;;;;;5087316;28;20554;-61
2020/12/03 05:33:47;;;;;;;34.22;17.83;;;3.30;99.90;;;;;;5087156;28;20606;-61
2020/12/03 05:36:27;;;;;;;26.98;16.98;;;3.20;99.90;;;;;;5086614;28;20203;-61
2020/12/03 05:38:54;;;;;;;29.30;18.52;;;2.90;99.90;;;;;;5086042;28;20237;-62
2020/12/03 05:41:22;;;;;;;25.35;17.38;;;3.20;99.90;;;;;;5086858;28;20224;-62
2020/12/03 05:43:47;;;;;;;22.83;15.73;;;3.10;99.90;;;;;;5082218;28;20181;-61
2020/12/03 05:46:16;;;;;;;27.30;17.43;;;3.20;99.90;;;;;;5076083;28;20207;-60
2020/12/03 05:48:54;;;;;;;24.75;15.38;;;3.30;99.90;;;;;;5082165;28;20784;-61
2020/12/03 05:51:29;;;;;;;26.20;16.48;;;3.30;99.90;;;;;;5087274;28;20195;-61
2020/12/03 05:54:00;;;;;;;21.85;14.70;;;3.20;99.90;;;;;;5088764;28;20187;-61
2020/12/03 05:56:28;;;;;;;17.52;13.20;;;3.30;99.90;;;;;;5080415;28;20294;-61
2020/12/03 05:58:54;;;;;;;18.08;11.43;;;3.30;99.90;;;;;;5084392;28;20241;-60
2020/12/03 06:01:23;;;;;;;24.87;15.77;;;3.50;99.90;;;;;;5085637;28;20652;-61
2020/12/03 06:04:25;;;;;;;23.42;16.83;;;3.50;99.90;;;;;;5089119;28;20199;-60
2020/12/03 06:06:59;;;;;;;22.95;15.40;;;3.50;99.90;;;;;;5087395;28;20181;-60
2020/12/03 06:09:34;;;;;;;24.50;15.15;;;3.60;99.90;;;;;;5088526;28;20215;-61
2020/12/03 06:12:25;;;;;;;20.95;15.60;;;3.30;99.90;;;;;;5088004;28;20608;-60
2020/12/03 06:15:09;;;;;;;20.10;13.73;;;3.20;99.90;;;;;;5075574;28;20223;-61
2020/12/03 06:18:03;;;;;;;20.05;14.00;;;3.10;99.90;;;;;;5100701;28;20180;-62
2020/12/03 06:20:40;;;;;;;19.92;14.10;;;3.10;99.90;;;;;;5077980;28;20184;-61
2020/12/03 06:23:27;;;;;;;19.88;13.57;;;3.20;99.90;;;;;;5091887;28;20226;-60
2020/12/03 06:26:12;;;;;;;15.52;10.70;;;3.20;99.90;;;;;;5087902;28;20332;-62
2020/12/03 06:29:15;;;;;;;11.80;9.20;;;3.70;99.90;;;;;;5086971;28;20214;-62
2020/12/03 06:31:52;;;;;;;13.63;9.77;;;3.70;99.90;;;;;;5089087;28;20188;-61
2020/12/03 06:34:31;;;;;;;12.75;9.48;;;3.80;99.90;;;;;;5088789;28;20199;-62
2020/12/03 06:37:01;;;;;;;14.52;10.20;;;4.00;99.90;;;;;;5079626;28;20176;-61
2020/12/03 06:39:54;;;;;;;14.20;10.20;;;3.90;99.90;;;;;;5084750;28;20666;-61
2020/12/03 06:42:40;;;;;;;13.75;10.43;;;3.90;99.90;;;;;;5084459;28;20227;-60
2020/12/03 06:45:09;;;;;;;14.35;10.73;;;3.90;99.90;;;;;;5088735;28;20416;-61
2020/12/03 06:47:35;;;;;;;14.55;11.05;;;3.70;99.90;;;;;;5082232;28;20212;-60
2020/12/03 06:50:31;;;;;;;13.17;10.50;;;4.00;99.90;;;;;;5089191;28;20184;-59
2020/12/03 06:53:27;;;;;;;15.60;11.20;;;3.90;99.90;;;;;;5079685;28;20219;-59
2020/12/03 06:56:08;;;;;;;15.45;10.73;;;3.90;99.90;;;;;;5075350;28;20210;-58
2020/12/03 06:58:52;;;;;;;13.30;10.40;;;3.80;99.90;;;;;;5084941;28;20184;-61
2020/12/03 07:01:18;;;;;;;16.75;11.60;;;3.90;99.90;;;;;;5088968;28;20207;-58
2020/12/03 07:04:17;;;;;;;13.37;10.93;;;3.90;99.90;;;;;;5087331;28;20177;-58
2020/12/03 07:06:55;;;;;;;15.00;11.02;;;3.70;99.90;;;;;;5086846;28;20279;-59
2020/12/03 07:09:40;;;;;;;15.65;11.13;;;3.70;99.90;;;;;;5087328;28;20208;-58
2020/12/03 07:12:50;;;;;;;13.02;11.20;;;3.80;99.90;;;;;;5086447;28;20200;-58
2020/12/03 07:15:54;;;;;;;12.40;10.23;;;3.90;99.90;;;;;;5065508;28;20664;-61
2020/12/03 07:18:52;;;;;;;17.02;11.73;;;3.90;99.90;;;;;;5088389;28;20551;-59
2020/12/03 07:21:59;;;;;;;17.02;11.20;;;3.50;99.90;;;;;;5061098;28;20259;-59
2020/12/03 07:24:30;;;;;;;14.85;10.30;;;4.20;99.90;;;;;;5083751;28;20681;-59
2020/12/03 07:26:58;;;;;;;12.63;9.88;;;4.10;99.90;;;;;;5086095;28;20714;-58
2020/12/03 07:29:42;;;;;;;15.43;11.93;;;4.40;99.90;;;;;;5088575;28;20187;-59
2020/12/03 07:32:39;;;;;;;12.57;9.73;;;4.40;99.90;;;;;;5089682;28;20230;-57
2020/12/03 07:35:09;;;;;;;13.60;10.88;;;3.90;99.90;;;;;;5076562;28;20213;-61
2020/12/03 07:37:34;;;;;;;15.70;10.40;;;4.10;99.90;;;;;;5103038;28;20232;-57
2020/12/03 07:40:00;;;;;;;12.10;9.40;;;4.30;99.90;;;;;;5087053;28;20194;-60
2020/12/03 07:42:26;;;;;;;15.33;9.93;;;4.20;99.90;;;;;;5087160;28;20211;-60
2020/12/03 07:44:53;;;;;;;12.30;9.63;;;4.30;99.90;;;;;;5088496;28;20239;-57
2020/12/03 07:47:34;;;;;;;10.77;8.55;;;4.50;99.90;;;;;;5087759;28;20627;-58
2020/12/03 07:50:26;;;;;;;11.88;9.32;;;4.30;99.90;;;;;;5087831;28;20181;-59
2020/12/03 07:53:18;;;;;;;10.95;8.45;;;4.60;99.90;;;;;;5059173;28;20193;-58
2020/12/03 07:55:44;;;;;;;10.77;9.05;;;4.50;99.90;;;;;;5087713;28;20756;-59
2020/12/03 07:58:34;;;;;;;11.10;7.87;;;4.50;99.90;;;;;;5088511;28;20293;-59
2020/12/03 08:00:59;;;;;;;10.52;8.18;;;4.80;99.90;;;;;;5086008;28;20192;-60
2020/12/03 08:03:37;;;;;;;9.30;6.60;;;4.80;99.50;;;;;;5086273;28;20526;-61
2020/12/03 08:06:15;;;;;;;8.75;7.60;;;4.80;98.80;;;;;;5084965;28;20209;-60
2020/12/03 08:09:17;;;;;;;8.40;7.28;;;4.50;98.40;;;;;;5088658;28;20727;-59
2020/12/03 08:11:58;;;;;;;8.23;6.47;;;4.80;98.60;;;;;;5085585;28;20262;-57
2020/12/03 08:14:48;;;;;;;7.65;6.30;;;4.70;98.10;;;;;;5086382;28;20208;-60
2020/12/03 08:17:17;;;;;;;8.02;6.50;;;4.80;97.60;;;;;;5081343;28;20192;-60
2020/12/03 08:19:55;;;;;;;11.18;8.02;;;4.90;97.30;;;;;;5086675;28;20219;-61
2020/12/03 08:22:27;;;;;;;8.48;6.50;;;4.60;97.10;;;;;;5087169;28;20184;-61
2020/12/03 08:25:05;;;;;;;13.98;7.47;;;4.50;98.00;;;;;;5086571;28;20566;-59
2020/12/03 08:27:31;;;;;;;8.93;7.47;;;4.60;99.00;;;;;;5085829;28;20242;-60
2020/12/03 08:29:56;;;;;;;7.33;5.93;;;4.80;98.40;;;;;;5085889;28;20271;-60
2020/12/03 08:32:21;;;;;;;7.37;6.03;;;4.90;96.80;;;;;;5088564;28;20185;-59
2020/12/03 08:34:47;;;;;;;10.60;7.23;;;4.70;96.10;;;;;;5080820;28;20229;-58
2020/12/03 08:37:16;;;;;;;9.47;8.00;;;4.70;96.50;;;;;;5084335;28;20196;-58
2020/12/03 08:39:44;;;;;;;10.30;6.80;;;4.60;97.00;;;;;;5095232;28;20181;-59
2020/12/03 08:42:11;;;;;;;10.90;7.53;;;4.80;97.30;;;;;;5081673;28;20182;-60
2020/12/03 08:44:37;;;;;;;11.05;8.20;;;4.70;97.40;;;;;;5101181;28;20474;-57
2020/12/03 08:47:18;;;;;;;11.48;8.23;;;4.60;97.80;;;;;;5082953;28;20405;-59
2020/12/03 08:49:44;;;;;;;9.75;8.02;;;4.30;98.10;;;;;;5082443;28;20183;-59
2020/12/03 08:52:11;;;;;;;12.20;9.07;;;4.30;98.60;;;;;;5085472;28;20197;-58
2020/12/03 08:54:36;;;;;;;10.38;7.82;;;4.50;98.80;;;;;;5081422;28;20331;-59
2020/12/03 08:57:11;;;;;;;10.37;8.87;;;4.40;99.20;;;;;;5082950;28;20275;-60
2020/12/03 08:59:45;;;;;;;12.15;8.98;;;4.40;99.30;;;;;;5079378;28;20462;-58
2020/12/03 09:02:11;;;;;;;9.73;8.18;;;4.40;99.70;;;;;;5077226;28;20223;-59
2020/12/03 09:04:42;;;;;;;11.52;8.43;;;4.20;99.50;;;;;;5083596;28;20208;-59
2020/12/03 09:07:12;;;;;;;11.27;8.45;;;4.50;99.20;;;;;;5080976;28;20180;-61
2020/12/03 09:09:44;;;;;;;10.85;8.55;;;4.40;99.20;;;;;;5080162;28;20188;-60
2020/12/03 09:12:12;;;;;;;10.32;8.38;;;4.70;99.30;;;;;;5080105;28;20716;-60
2020/12/03 09:14:41;;;;;;;11.68;9.35;;;4.60;98.80;;;;;;5081639;28;20209;-62
2020/12/03 09:17:13;;;;;;;12.27;9.38;;;4.80;98.90;;;;;;5077288;28;20172;-58
2020/12/03 09:19:39;;;;;;;11.23;9.48;;;4.50;98.90;;;;;;5080938;28;20266;-56
2020/12/03 09:22:06;;;;;;;12.43;9.90;;;4.60;99.00;;;;;;5080258;28;20268;-58
2020/12/03 09:24:34;;;;;;;12.00;9.30;;;4.40;99.00;;;;;;5076526;28;20610;-58
2020/12/03 09:27:03;;;;;;;12.95;10.00;;;4.80;99.50;;;;;;5078377;28;20193;-59
2020/12/03 09:29:29;;;;;;;13.23;9.85;;;4.90;99.40;;;;;;5079747;28;20714;-60
2020/12/03 09:31:59;;;;;;;14.77;10.23;;;4.80;99.10;;;;;;5083242;28;20190;-59
2020/12/03 09:34:29;;;;;;;14.00;10.93;;;5.00;99.20;;;;;;5085248;28;20549;-59
2020/12/03 09:36:56;;;;;;;12.20;9.30;;;4.80;99.30;;;;;;5084099;28;20181;-59
2020/12/03 09:39:22;;;;;;;12.48;9.70;;;5.10;99.00;;;;;;5086003;28;20191;-59
2020/12/03 09:41:48;;;;;;;13.85;9.95;;;5.00;98.50;;;;;;5089519;28;20241;-58
2020/12/03 09:44:16;;;;;;;13.37;9.23;;;4.90;97.90;;;;;;5089088;28;20690;-59
2020/12/03 09:46:46;;;;;;;16.52;9.70;;;5.00;97.70;;;;;;5088407;28;20211;-59
2020/12/03 09:49:15;;;;;;;10.43;8.70;;;5.30;97.70;;;;;;5083166;28;20975;-61
2020/12/03 09:51:42;;;;;;;10.40;9.05;;;5.20;98.00;;;;;;5085903;28;20227;-61
2020/12/03 09:54:08;;;;;;;11.20;8.52;;;5.30;97.30;;;;;;5083753;28;20210;-61
2020/12/03 09:56:36;;;;;;;12.83;8.80;;;5.40;97.10;;;;;;5089645;28;20276;-60
2020/12/03 09:59:03;;;;;;;9.95;8.20;;;5.40;97.20;;;;;;5102720;28;20439;-60
2020/12/03 10:02:14;;;;;;;11.57;8.82;;;5.50;96.30;;;;;;5084094;28;20673;-60
2020/12/03 10:04:58;;;;;;;12.13;9.20;;;5.00;96.40;;;;;;5095316;28;20570;-57
2020/12/03 10:08:03;;;;;;;10.88;8.57;;;5.50;96.40;;;;;;5082836;28;20543;-58
2020/12/03 10:10:52;;;;;;;10.93;8.45;;;5.80;96.30;;;;;;5089801;28;20343;-59
2020/12/03 10:13:36;;;;;;;10.10;8.57;;;5.70;95.70;;;;;;5089002;28;20193;-58
2020/12/03 10:16:07;;;;;;;11.82;9.43;;;5.60;95.80;;;;;;5089487;28;20204;-60
2020/12/03 10:18:54;;;;;;;10.35;8.80;;;5.70;96.40;;;;;;5086082;28;20190;-60
2020/12/03 10:21:22;;;;;;;10.30;8.65;;;5.70;95.40;;;;;;5085138;28;20566;-59
2020/12/03 10:23:57;;;;;;;11.00;8.90;;;6.00;96.00;;;;;;5091863;28;20290;-59
2020/12/03 10:26:41;;;;;;;10.80;8.93;;;5.60;95.60;;;;;;5088154;28;20243;-59
2020/12/03 10:29:26;;;;;;;11.65;8.75;;;5.60;95.20;;;;;;5088121;28;20220;-61
2020/12/03 10:31:52;;;;;;;10.23;8.77;;;6.10;94.30;;;;;;5087981;28;20211;-61
2020/12/03 10:34:19;;;;;;;9.73;7.38;;;6.00;93.90;;;;;;5088994;28;20207;-59
2020/12/03 10:36:53;;;;;;;11.30;8.18;;;6.00;93.80;;;;;;5088878;28;20191;-59
2020/12/03 10:39:20;;;;;;;10.77;8.23;;;5.80;94.10;;;;;;5088527;28;20555;-59
2020/12/03 10:41:53;;;;;;;12.27;7.57;;;5.90;93.90;;;;;;5088094;28;20215;-59
2020/12/03 10:44:24;;;;;;;11.45;8.43;;;5.80;93.80;;;;;;5086474;28;20214;-59
2020/12/03 10:46:57;;;;;;;8.90;8.00;;;5.90;93.20;;;;;;5102737;28;20189;-60
2020/12/03 10:49:25;;;;;;;8.73;7.70;;;5.80;93.30;;;;;;5087581;28;20619;-60
2020/12/03 10:51:52;;;;;;;9.40;7.97;;;5.80;93.60;;;;;;5088263;28;20600;-60
2020/12/03 10:54:19;;;;;;;10.25;7.10;;;5.80;93.30;;;;;;5089647;28;20657;-60
2020/12/03 10:56:52;;;;;;;10.23;7.15;;;5.70;93.50;;;;;;5088778;28;20231;-60
2020/12/03 10:59:24;;;;;;;8.95;7.32;;;5.80;93.40;;;;;;5087590;28;20188;-59
2020/12/03 11:01:53;;;;;;;8.48;6.75;;;5.90;92.90;;;;;;5082046;28;20182;-58
2020/12/03 11:04:20;;;;;;;10.95;8.10;;;6.00;93.20;;;;;;5088004;28;20742;-59
2020/12/03 11:06:46;;;;;;;8.95;7.65;;;6.20;92.90;;;;;;5084150;28;20198;-61
2020/12/03 11:09:19;;;;;;;12.23;6.93;;;6.00;92.50;;;;;;5087248;28;20214;-61
2020/12/03 11:11:47;;;;;;;10.93;7.25;;;6.00;93.20;;;;;;5086590;28;20980;-59
2020/12/03 11:14:15;;;;;;;10.52;7.97;;;5.90;93.10;;;;;;5086407;28;20780;-59
2020/12/03 11:16:56;;;;;;;9.15;7.25;;;6.10;92.90;;;;;;5084819;28;20223;-58
2020/12/03 11:19:23;;;;;;;10.18;7.93;;;5.90;91.70;;;;;;5103469;28;20191;-58
2020/12/03 11:22:21;;;;;;;8.38;7.00;;;5.90;92.40;;;;;;5087536;28;20190;-57
2020/12/03 11:24:59;;;;;;;8.52;7.63;;;5.70;92.60;;;;;;5086703;28;20318;-60
2020/12/03 11:27:25;;;;;;;9.50;7.75;;;5.70;93.00;;;;;;5085092;28;20276;-58
2020/12/03 11:29:51;;;;;;;8.15;6.40;;;5.80;93.20;;;;;;5088567;28;20182;-59
2020/12/03 11:32:22;;;;;;;9.80;7.03;;;5.80;92.60;;;;;;5086920;28;20633;-59
2020/12/03 11:34:47;;;;;;;15.43;7.72;;;5.80;92.60;;;;;;5086798;28;20529;-60
2020/12/03 11:37:14;;;;;;;8.87;6.80;;;6.00;93.10;;;;;;5086579;28;20658;-59
2020/12/03 11:39:39;;;;;;;7.90;6.70;;;5.80;92.50;;;;;;5088671;28;20191;-59
2020/12/03 11:50:37;;;;;;;11.65;7.45;;;6.00;92.60;;;;;;5046587;28;20211;-60
2020/12/03 11:53:03;;;;;;;8.18;6.55;;;5.80;92.30;;;;;;5070227;28;20558;-61
2020/12/03 11:55:29;;;;;;;9.13;6.95;;;6.10;92.70;;;;;;5086780;28;20201;-60
2020/12/03 11:58:08;;;;;;;7.17;6.40;;;6.20;92.80;;;;;;5086720;28;20198;-60
2020/12/03 12:00:34;;;;;;;9.30;6.57;;;6.20;91.90;;;;;;5087755;28;20551;-61
2020/12/03 12:03:10;;;;;;;7.18;5.90;;;6.00;92.30;;;;;;5088489;28;20188;-60
2020/12/03 12:11:36;;;;;;;8.88;6.30;;;6.00;92.10;;;;;;5089610;28;20177;-60
2020/12/03 12:13:32;;;;;;;6.65;5.15;;;5.90;92.10;;;;;;5074463;28;20248;-60
2020/12/03 12:15:57;;;;;;;9.63;6.00;;;5.80;92.10;;;;;;5086765;28;20680;-60
2020/12/03 12:18:23;;;;;;;9.53;7.00;;;6.10;92.50;;;;;;5086409;28;20189;-59
2020/12/03 12:20:49;;;;;;;7.40;6.37;;;5.60;92.80;;;;;;5087286;28;20540;-60
2020/12/03 12:23:18;;;;;;;8.30;5.88;;;5.80;92.90;;;;;;5088800;28;20578;-60
2020/12/03 12:25:44;;;;;;;9.98;6.78;;;5.40;92.60;;;;;;5085383;28;20606;-60
2020/12/03 12:28:09;;;;;;;9.70;6.70;;;6.10;93.00;;;;;;5088803;28;20251;-60
2020/12/03 12:30:35;;;;;;;8.07;7.00;;;6.20;92.80;;;;;;5086835;28;20184;-61
2020/12/03 12:33:00;;;;;;;7.43;6.23;;;6.00;92.80;;;;;;5080662;28;20283;-60
2020/12/03 12:35:27;;;;;;;8.27;6.33;;;6.00;92.70;;;;;;5086732;28;20266;-59
2020/12/03 12:37:53;;;;;;;9.05;6.75;;;6.00;92.90;;;;;;5084570;28;20203;-63
2020/12/03 12:40:19;;;;;;;9.20;7.70;;;5.70;92.80;;;;;;5086924;28;20659;-62
2020/12/03 12:42:44;;;;;;;7.25;5.47;;;5.90;93.00;;;;;;5086036;28;20528;-59
2020/12/03 12:45:10;;;;;;;7.17;5.90;;;5.90;92.80;;;;;;5078641;28;20646;-59
2020/12/03 12:47:36;;;;;;;7.40;6.50;;;5.80;92.80;;;;;;5085746;28;20312;-56
2020/12/03 12:50:02;;;;;;;7.67;6.10;;;5.60;92.80;;;;;;5088388;28;20184;-59
2020/12/03 12:52:28;;;;;;;8.07;5.60;;;6.00;93.20;;;;;;5085308;28;20191;-61
2020/12/03 12:54:54;;;;;;;6.32;5.72;;;5.90;93.10;;;;;;5083624;28;20451;-61
2020/12/03 12:57:20;;;;;;;8.80;6.17;;;5.90;93.10;;;;;;5086562;28;20209;-59
2020/12/03 12:59:47;;;;;;;7.83;6.03;;;5.80;93.20;;;;;;5084670;28;20442;-57
2020/12/03 13:02:13;;;;;;;8.70;5.60;;;5.80;93.00;;;;;;5079445;28;20194;-60
2020/12/03 13:04:39;;;;;;;7.82;5.53;;;5.80;93.00;;;;;;5085623;28;20207;-61
2020/12/03 13:07:08;;;;;;;7.57;6.17;;;6.20;93.10;;;;;;5086170;28;20591;-57
2020/12/03 13:09:34;;;;;;;7.93;6.10;;;5.90;93.00;;;;;;5083575;28;20705;-61
2020/12/03 13:12:01;;;;;;;8.83;5.63;;;5.80;93.10;;;;;;5079211;28;20183;-59
2020/12/03 13:14:27;;;;;;;9.50;6.65;;;5.80;93.30;;;;;;5081742;28;20461;-62
2020/12/03 13:16:54;;;;;;;7.10;6.38;;;5.80;93.00;;;;;;5085306;28;20188;-62
2020/12/03 13:19:19;;;;;;;8.13;5.85;;;6.00;93.10;;;;;;5098019;28;20217;-62
2020/12/03 13:21:45;;;;;;;7.23;4.77;;;5.90;93.10;;;;;;5082318;28;20182;-62